sensor_id;sensor_type;location;lat;lon;timestamp;temperature;humidity
17495;DHT22;8864;51.970;4.614;2022-11-11T00:01:49;17.70;79.30
17495;DHT22;8864;51.970;4.614;2022-11-11T00:04:16;17.70;79.30
17495;DHT22;8864;51.970;4.614;2022-11-11T00:06:45;17.70;79.30
17495;DHT22;8864;51.970;4.614;2022-11-11T00:09:12;17.70;79.30
17495;DHT22;8864;51.970;4.614;2022-11-11T00:11:39;17.70;79.30
17495;DHT22;8864;51.970;4.614;2022-11-11T00:14:06;17.70;79.30
17495;DHT22;8864;51.970;4.614;2022-11-11T00:16:32;17.70;79.40
17495;DHT22;8864;51.970;4.614;2022-11-11T00:19:13;17.70;79.40
17495;DHT22;8864;51.970;4.614;2022-11-11T00:21:59;17.70;79.40
17495;DHT22;8864;51.970;4.614;2022-11-11T00:24:43;17.60;79.30
17495;DHT22;8864;51.970;4.614;2022-11-11T00:27:27;17.60;79.30
17495;DHT22;8864;51.970;4.614;2022-11-11T00:29:54;17.60;79.30
17495;DHT22;8864;51.970;4.614;2022-11-11T00:32:21;17.70;79.30
17495;DHT22;8864;51.970;4.614;2022-11-11T00:34:54;17.70;79.30
17495;DHT22;8864;51.970;4.614;2022-11-11T00:37:41;17.70;79.30
17495;DHT22;8864;51.970;4.614;2022-11-11T00:40:09;17.60;79.20
17495;DHT22;8864;51.970;4.614;2022-11-11T00:42:37;17.70;79.30
17495;DHT22;8864;51.970;4.614;2022-11-11T00:45:05;17.60;79.10
17495;DHT22;8864;51.970;4.614;2022-11-11T00:47:32;17.60;79.10
17495;DHT22;8864;51.970;4.614;2022-11-11T00:50:19;17.60;79.20
17495;DHT22;8864;51.970;4.614;2022-11-11T00:53:08;17.60;79.10
17495;DHT22;8864;51.970;4.614;2022-11-11T00:55:35;17.60;79.10
17495;DHT22;8864;51.970;4.614;2022-11-11T00:58:02;17.60;79.10
17495;DHT22;8864;51.970;4.614;2022-11-11T01:00:29;17.60;79.10
17495;DHT22;8864;51.970;4.614;2022-11-11T01:02:56;17.60;79.10
17495;DHT22;8864;51.970;4.614;2022-11-11T01:05:23;17.60;79.10
17495;DHT22;8864;51.970;4.614;2022-11-11T01:07:50;17.60;79.10
17495;DHT22;8864;51.970;4.614;2022-11-11T01:10:19;17.60;79.00
17495;DHT22;8864;51.970;4.614;2022-11-11T01:13:00;17.60;79.10
17495;DHT22;8864;51.970;4.614;2022-11-11T01:15:37;17.60;79.10
17495;DHT22;8864;51.970;4.614;2022-11-11T01:18:05;17.60;79.10
17495;DHT22;8864;51.970;4.614;2022-11-11T01:20:33;17.60;79.10
17495;DHT22;8864;51.970;4.614;2022-11-11T01:23:02;17.60;79.10
17495;DHT22;8864;51.970;4.614;2022-11-11T01:25:32;17.60;79.10
17495;DHT22;8864;51.970;4.614;2022-11-11T01:27:58;17.70;79.10
17495;DHT22;8864;51.970;4.614;2022-11-11T01:30:25;17.60;79.10
17495;DHT22;8864;51.970;4.614;2022-11-11T01:32:52;17.60;79.10
17495;DHT22;8864;51.970;4.614;2022-11-11T01:35:19;17.60;79.10
17495;DHT22;8864;51.970;4.614;2022-11-11T01:37:46;17.60;79.00
17495;DHT22;8864;51.970;4.614;2022-11-11T01:40:12;17.60;79.00
17495;DHT22;8864;51.970;4.614;2022-11-11T01:42:48;17.60;79.00
17495;DHT22;8864;51.970;4.614;2022-11-11T01:45:45;17.60;79.10
17495;DHT22;8864;51.970;4.614;2022-11-11T01:48:17;17.60;79.20
17495;DHT22;8864;51.970;4.614;2022-11-11T01:51:05;17.60;79.20
17495;DHT22;8864;51.970;4.614;2022-11-11T01:53:33;17.60;79.30
17495;DHT22;8864;51.970;4.614;2022-11-11T01:56:01;17.60;79.30
17495;DHT22;8864;51.970;4.614;2022-11-11T01:58:30;17.60;79.30
17495;DHT22;8864;51.970;4.614;2022-11-11T02:00:57;17.60;79.30
17495;DHT22;8864;51.970;4.614;2022-11-11T02:03:27;17.60;80.00
17495;DHT22;8864;51.970;4.614;2022-11-11T02:05:56;17.60;79.30
17495;DHT22;8864;51.970;4.614;2022-11-11T02:08:26;17.60;79.30
17495;DHT22;8864;51.970;4.614;2022-11-11T02:11:03;17.60;79.30
17495;DHT22;8864;51.970;4.614;2022-11-11T02:13:32;17.60;79.20
17495;DHT22;8864;51.970;4.614;2022-11-11T02:16:20;17.60;79.20
17495;DHT22;8864;51.970;4.614;2022-11-11T02:18:47;17.60;79.30
17495;DHT22;8864;51.970;4.614;2022-11-11T02:21:19;17.60;79.30
17495;DHT22;8864;51.970;4.614;2022-11-11T02:23:55;17.60;79.20
17495;DHT22;8864;51.970;4.614;2022-11-11T02:26:25;17.60;79.30
17495;DHT22;8864;51.970;4.614;2022-11-11T02:28:52;17.60;79.20
17495;DHT22;8864;51.970;4.614;2022-11-11T02:31:25;17.60;79.20
17495;DHT22;8864;51.970;4.614;2022-11-11T02:33:53;17.60;79.20
17495;DHT22;8864;51.970;4.614;2022-11-11T02:36:19;17.60;79.20
17495;DHT22;8864;51.970;4.614;2022-11-11T02:38:47;17.60;79.10
17495;DHT22;8864;51.970;4.614;2022-11-11T02:41:15;17.60;79.20
17495;DHT22;8864;51.970;4.614;2022-11-11T02:44:00;17.60;79.10
17495;DHT22;8864;51.970;4.614;2022-11-11T02:46:27;17.60;79.10
17495;DHT22;8864;51.970;4.614;2022-11-11T02:48:53;17.60;79.10
17495;DHT22;8864;51.970;4.614;2022-11-11T02:51:20;17.60;79.10
17495;DHT22;8864;51.970;4.614;2022-11-11T02:53:47;17.60;79.10
17495;DHT22;8864;51.970;4.614;2022-11-11T02:56:15;17.60;79.90
17495;DHT22;8864;51.970;4.614;2022-11-11T02:59:02;17.60;79.10
17495;DHT22;8864;51.970;4.614;2022-11-11T03:01:29;17.60;79.10
17495;DHT22;8864;51.970;4.614;2022-11-11T03:03:55;17.60;79.20
17495;DHT22;8864;51.970;4.614;2022-11-11T03:06:22;17.60;79.30
17495;DHT22;8864;51.970;4.614;2022-11-11T03:08:49;17.60;79.30
17495;DHT22;8864;51.970;4.614;2022-11-11T03:11:17;17.60;79.30
17495;DHT22;8864;51.970;4.614;2022-11-11T03:13:52;17.60;79.30
17495;DHT22;8864;51.970;4.614;2022-11-11T03:16:19;17.50;79.30
17495;DHT22;8864;51.970;4.614;2022-11-11T03:19:14;17.60;79.30
17495;DHT22;8864;51.970;4.614;2022-11-11T03:21:40;17.50;79.30
17495;DHT22;8864;51.970;4.614;2022-11-11T03:24:07;17.50;79.30
17495;DHT22;8864;51.970;4.614;2022-11-11T03:26:36;17.50;79.30
17495;DHT22;8864;51.970;4.614;2022-11-11T03:29:02;17.60;79.30
17495;DHT22;8864;51.970;4.614;2022-11-11T03:31:29;17.50;79.20
17495;DHT22;8864;51.970;4.614;2022-11-11T03:33:56;17.50;79.20
17495;DHT22;8864;51.970;4.614;2022-11-11T03:36:42;17.60;79.30
17495;DHT22;8864;51.970;4.614;2022-11-11T03:39:27;17.50;79.30
17495;DHT22;8864;51.970;4.614;2022-11-11T03:41:56;17.60;79.30
17495;DHT22;8864;51.970;4.614;2022-11-11T03:44:23;17.50;79.30
17495;DHT22;8864;51.970;4.614;2022-11-11T03:46:53;17.50;79.30
17495;DHT22;8864;51.970;4.614;2022-11-11T03:49:19;17.50;79.20
17495;DHT22;8864;51.970;4.614;2022-11-11T03:51:46;17.50;79.30
17495;DHT22;8864;51.970;4.614;2022-11-11T03:54:13;17.50;79.20
17495;DHT22;8864;51.970;4.614;2022-11-11T03:56:40;17.50;79.30
17495;DHT22;8864;51.970;4.614;2022-11-11T03:59:08;17.50;79.30
17495;DHT22;8864;51.970;4.614;2022-11-11T04:01:35;17.60;79.30
17495;DHT22;8864;51.970;4.614;2022-11-11T04:04:19;17.50;79.20
17495;DHT22;8864;51.970;4.614;2022-11-11T04:07:03;17.50;79.20
17495;DHT22;8864;51.970;4.614;2022-11-11T04:09:47;17.50;79.20
17495;DHT22;8864;51.970;4.614;2022-11-11T04:12:32;17.50;79.20
17495;DHT22;8864;51.970;4.614;2022-11-11T04:15:21;17.50;79.20
17495;DHT22;8864;51.970;4.614;2022-11-11T04:18:06;17.50;79.20
17495;DHT22;8864;51.970;4.614;2022-11-11T04:20:32;17.60;79.30
17495;DHT22;8864;51.970;4.614;2022-11-11T04:23:17;17.50;79.20
17495;DHT22;8864;51.970;4.614;2022-11-11T04:25:43;17.50;79.30
17495;DHT22;8864;51.970;4.614;2022-11-11T04:28:17;17.50;79.30
17495;DHT22;8864;51.970;4.614;2022-11-11T04:31:03;17.50;79.30
17495;DHT22;8864;51.970;4.614;2022-11-11T04:33:29;17.50;79.20
17495;DHT22;8864;51.970;4.614;2022-11-11T04:35:55;17.50;79.20
17495;DHT22;8864;51.970;4.614;2022-11-11T04:38:22;17.50;79.20
17495;DHT22;8864;51.970;4.614;2022-11-11T04:41:06;17.50;79.20
17495;DHT22;8864;51.970;4.614;2022-11-11T04:43:33;17.50;79.20
17495;DHT22;8864;51.970;4.614;2022-11-11T04:46:23;17.50;79.20
17495;DHT22;8864;51.970;4.614;2022-11-11T04:48:48;17.50;79.20
17495;DHT22;8864;51.970;4.614;2022-11-11T04:51:15;17.50;79.10
17495;DHT22;8864;51.970;4.614;2022-11-11T04:53:42;17.50;79.10
17495;DHT22;8864;51.970;4.614;2022-11-11T04:56:09;17.50;79.10
17495;DHT22;8864;51.970;4.614;2022-11-11T04:58:53;17.50;79.10
17495;DHT22;8864;51.970;4.614;2022-11-11T05:01:35;17.50;79.10
17495;DHT22;8864;51.970;4.614;2022-11-11T05:04:31;17.50;79.10
17495;DHT22;8864;51.970;4.614;2022-11-11T05:06:57;17.50;79.10
17495;DHT22;8864;51.970;4.614;2022-11-11T05:09:41;17.50;79.10
17495;DHT22;8864;51.970;4.614;2022-11-11T05:12:08;17.50;79.10
17495;DHT22;8864;51.970;4.614;2022-11-11T05:14:35;17.50;79.10
17495;DHT22;8864;51.970;4.614;2022-11-11T05:17:21;17.50;79.10
17495;DHT22;8864;51.970;4.614;2022-11-11T05:20:20;17.50;79.10
17495;DHT22;8864;51.970;4.614;2022-11-11T05:23:04;17.50;79.10
17495;DHT22;8864;51.970;4.614;2022-11-11T05:25:31;17.50;79.10
17495;DHT22;8864;51.970;4.614;2022-11-11T05:27:58;17.50;79.10
17495;DHT22;8864;51.970;4.614;2022-11-11T05:30:25;17.50;79.10
17495;DHT22;8864;51.970;4.614;2022-11-11T05:32:54;17.50;79.00
17495;DHT22;8864;51.970;4.614;2022-11-11T05:35:21;17.50;79.10
17495;DHT22;8864;51.970;4.614;2022-11-11T05:37:48;17.50;79.00
17495;DHT22;8864;51.970;4.614;2022-11-11T05:40:35;17.50;79.00
17495;DHT22;8864;51.970;4.614;2022-11-11T05:43:02;17.50;79.00
17495;DHT22;8864;51.970;4.614;2022-11-11T05:45:28;17.50;79.00
17495;DHT22;8864;51.970;4.614;2022-11-11T05:48:01;17.50;79.00
17495;DHT22;8864;51.970;4.614;2022-11-11T05:50:28;17.50;79.00
17495;DHT22;8864;51.970;4.614;2022-11-11T05:52:55;17.50;79.00
17495;DHT22;8864;51.970;4.614;2022-11-11T05:55:21;17.50;79.00
17495;DHT22;8864;51.970;4.614;2022-11-11T05:57:48;17.50;79.00
17495;DHT22;8864;51.970;4.614;2022-11-11T06:00:16;17.50;79.00
17495;DHT22;8864;51.970;4.614;2022-11-11T06:02:43;17.50;79.00
17495;DHT22;8864;51.970;4.614;2022-11-11T06:05:11;17.50;78.90
17495;DHT22;8864;51.970;4.614;2022-11-11T06:07:38;17.50;78.80
17495;DHT22;8864;51.970;4.614;2022-11-11T06:10:07;17.50;78.80
17495;DHT22;8864;51.970;4.614;2022-11-11T06:12:51;17.50;78.80
17495;DHT22;8864;51.970;4.614;2022-11-11T06:15:33;17.50;78.70
17495;DHT22;8864;51.970;4.614;2022-11-11T06:18:00;17.50;78.60
17495;DHT22;8864;51.970;4.614;2022-11-11T06:20:28;17.50;78.60
17495;DHT22;8864;51.970;4.614;2022-11-11T06:22:56;17.50;78.60
17495;DHT22;8864;51.970;4.614;2022-11-11T06:25:23;17.50;78.80
17495;DHT22;8864;51.970;4.614;2022-11-11T06:28:08;17.50;78.80
17495;DHT22;8864;51.970;4.614;2022-11-11T06:30:35;17.50;78.80
17495;DHT22;8864;51.970;4.614;2022-11-11T06:33:02;17.50;78.80
17495;DHT22;8864;51.970;4.614;2022-11-11T06:35:30;17.50;78.70
17495;DHT22;8864;51.970;4.614;2022-11-11T06:37:57;17.50;78.70
17495;DHT22;8864;51.970;4.614;2022-11-11T06:40:24;17.50;78.60
17495;DHT22;8864;51.970;4.614;2022-11-11T06:42:51;17.50;78.50
17495;DHT22;8864;51.970;4.614;2022-11-11T06:45:17;17.50;78.50
17495;DHT22;8864;51.970;4.614;2022-11-11T06:47:44;17.50;78.30
17495;DHT22;8864;51.970;4.614;2022-11-11T06:50:11;17.50;78.30
17495;DHT22;8864;51.970;4.614;2022-11-11T06:52:39;17.50;78.20
17495;DHT22;8864;51.970;4.614;2022-11-11T06:55:06;17.50;78.10
17495;DHT22;8864;51.970;4.614;2022-11-11T06:57:33;17.50;78.00
17495;DHT22;8864;51.970;4.614;2022-11-11T07:00:00;17.50;78.00
17495;DHT22;8864;51.970;4.614;2022-11-11T07:02:27;17.50;77.90
17495;DHT22;8864;51.970;4.614;2022-11-11T07:04:54;17.50;77.90
17495;DHT22;8864;51.970;4.614;2022-11-11T07:07:21;17.50;77.80
17495;DHT22;8864;51.970;4.614;2022-11-11T07:09:49;17.50;77.70
17495;DHT22;8864;51.970;4.614;2022-11-11T07:12:16;17.50;77.70
17495;DHT22;8864;51.970;4.614;2022-11-11T07:14:43;17.50;77.70
17495;DHT22;8864;51.970;4.614;2022-11-11T07:17:10;17.50;77.70
17495;DHT22;8864;51.970;4.614;2022-11-11T07:19:36;17.50;77.70
17495;DHT22;8864;51.970;4.614;2022-11-11T07:22:03;17.50;77.70
17495;DHT22;8864;51.970;4.614;2022-11-11T07:24:30;17.50;77.70
17495;DHT22;8864;51.970;4.614;2022-11-11T07:26:58;17.50;77.70
17495;DHT22;8864;51.970;4.614;2022-11-11T07:29:26;17.50;77.60
17495;DHT22;8864;51.970;4.614;2022-11-11T07:31:53;17.50;77.60
17495;DHT22;8864;51.970;4.614;2022-11-11T07:34:20;17.50;77.60
17495;DHT22;8864;51.970;4.614;2022-11-11T07:36:47;17.50;77.60
17495;DHT22;8864;51.970;4.614;2022-11-11T07:39:14;17.50;77.60
17495;DHT22;8864;51.970;4.614;2022-11-11T07:41:40;17.50;77.80
17495;DHT22;8864;51.970;4.614;2022-11-11T07:44:09;17.50;79.60
17495;DHT22;8864;51.970;4.614;2022-11-11T07:46:35;17.50;80.50
17495;DHT22;8864;51.970;4.614;2022-11-11T07:49:02;17.50;80.20
17495;DHT22;8864;51.970;4.614;2022-11-11T07:51:29;17.50;79.00
17495;DHT22;8864;51.970;4.614;2022-11-11T07:53:56;17.60;78.70
17495;DHT22;8864;51.970;4.614;2022-11-11T07:56:23;17.50;78.40
17495;DHT22;8864;51.970;4.614;2022-11-11T07:58:49;17.50;78.30
17495;DHT22;8864;51.970;4.614;2022-11-11T08:01:18;17.60;78.20
17495;DHT22;8864;51.970;4.614;2022-11-11T08:03:44;17.60;78.10
17495;DHT22;8864;51.970;4.614;2022-11-11T08:06:15;17.60;78.00
17495;DHT22;8864;51.970;4.614;2022-11-11T08:08:42;17.60;77.90
17495;DHT22;8864;51.970;4.614;2022-11-11T08:11:09;17.60;77.90
17495;DHT22;8864;51.970;4.614;2022-11-11T08:13:36;17.60;77.90
17495;DHT22;8864;51.970;4.614;2022-11-11T08:16:05;17.60;78.50
17495;DHT22;8864;51.970;4.614;2022-11-11T08:18:33;17.60;77.70
17495;DHT22;8864;51.970;4.614;2022-11-11T08:21:01;17.60;77.70
17495;DHT22;8864;51.970;4.614;2022-11-11T08:23:28;17.60;77.70
17495;DHT22;8864;51.970;4.614;2022-11-11T08:25:58;17.60;77.70
17495;DHT22;8864;51.970;4.614;2022-11-11T08:28:26;17.60;77.60
17495;DHT22;8864;51.970;4.614;2022-11-11T08:30:53;17.60;77.60
17495;DHT22;8864;51.970;4.614;2022-11-11T08:33:20;17.60;77.60
17495;DHT22;8864;51.970;4.614;2022-11-11T08:35:49;17.60;77.60
17495;DHT22;8864;51.970;4.614;2022-11-11T08:38:18;17.60;77.60
17495;DHT22;8864;51.970;4.614;2022-11-11T08:40:44;17.60;78.30
17495;DHT22;8864;51.970;4.614;2022-11-11T08:43:11;17.60;77.50
17495;DHT22;8864;51.970;4.614;2022-11-11T08:45:38;17.60;77.50
17495;DHT22;8864;51.970;4.614;2022-11-11T08:48:06;17.60;77.50
17495;DHT22;8864;51.970;4.614;2022-11-11T08:50:36;17.60;77.50
17495;DHT22;8864;51.970;4.614;2022-11-11T08:53:07;17.70;77.50
17495;DHT22;8864;51.970;4.614;2022-11-11T08:55:34;17.60;77.40
17495;DHT22;8864;51.970;4.614;2022-11-11T08:58:04;17.70;77.50
17495;DHT22;8864;51.970;4.614;2022-11-11T09:00:32;17.70;77.40
17495;DHT22;8864;51.970;4.614;2022-11-11T09:03:00;17.70;77.40
17495;DHT22;8864;51.970;4.614;2022-11-11T09:05:27;17.70;77.40
17495;DHT22;8864;51.970;4.614;2022-11-11T09:07:54;17.70;77.40
17495;DHT22;8864;51.970;4.614;2022-11-11T09:10:22;17.70;77.40
17495;DHT22;8864;51.970;4.614;2022-11-11T09:12:55;17.70;77.50
17495;DHT22;8864;51.970;4.614;2022-11-11T09:15:21;17.70;77.50
17495;DHT22;8864;51.970;4.614;2022-11-11T09:17:48;17.70;77.60
17495;DHT22;8864;51.970;4.614;2022-11-11T09:20:15;17.70;77.70
17495;DHT22;8864;51.970;4.614;2022-11-11T09:22:46;17.70;77.60
17495;DHT22;8864;51.970;4.614;2022-11-11T09:25:13;17.80;77.70
17495;DHT22;8864;51.970;4.614;2022-11-11T09:27:52;17.70;77.70
17495;DHT22;8864;51.970;4.614;2022-11-11T09:30:22;17.70;77.60
17495;DHT22;8864;51.970;4.614;2022-11-11T09:32:50;17.70;77.50
17495;DHT22;8864;51.970;4.614;2022-11-11T09:35:17;17.70;77.30
17495;DHT22;8864;51.970;4.614;2022-11-11T09:37:52;17.70;77.20
17495;DHT22;8864;51.970;4.614;2022-11-11T09:40:21;17.70;77.10
17495;DHT22;8864;51.970;4.614;2022-11-11T09:42:58;17.70;76.90
17495;DHT22;8864;51.970;4.614;2022-11-11T09:45:36;17.80;76.80
17495;DHT22;8864;51.970;4.614;2022-11-11T09:48:24;17.80;76.60
17495;DHT22;8864;51.970;4.614;2022-11-11T09:50:54;17.80;76.60
17495;DHT22;8864;51.970;4.614;2022-11-11T09:53:26;17.80;76.60
17495;DHT22;8864;51.970;4.614;2022-11-11T09:55:58;17.80;76.70
17495;DHT22;8864;51.970;4.614;2022-11-11T09:58:33;17.80;76.70
17495;DHT22;8864;51.970;4.614;2022-11-11T10:01:05;17.90;77.20
17495;DHT22;8864;51.970;4.614;2022-11-11T10:03:37;17.80;76.70
17495;DHT22;8864;51.970;4.614;2022-11-11T10:06:09;17.80;76.80
17495;DHT22;8864;51.970;4.614;2022-11-11T10:08:43;17.80;76.80
17495;DHT22;8864;51.970;4.614;2022-11-11T10:11:15;17.80;76.80
17495;DHT22;8864;51.970;4.614;2022-11-11T10:13:45;17.80;76.80
17495;DHT22;8864;51.970;4.614;2022-11-11T10:16:20;17.80;76.70
17495;DHT22;8864;51.970;4.614;2022-11-11T10:18:59;17.90;76.80
17495;DHT22;8864;51.970;4.614;2022-11-11T10:21:40;17.90;76.80
17495;DHT22;8864;51.970;4.614;2022-11-11T10:24:12;17.90;76.70
17495;DHT22;8864;51.970;4.614;2022-11-11T10:26:43;17.90;76.70
17495;DHT22;8864;51.970;4.614;2022-11-11T10:29:14;17.90;76.70
17495;DHT22;8864;51.970;4.614;2022-11-11T10:31:43;17.90;76.70
17495;DHT22;8864;51.970;4.614;2022-11-11T10:34:12;17.90;76.60
17495;DHT22;8864;51.970;4.614;2022-11-11T10:36:43;17.90;76.60
17495;DHT22;8864;51.970;4.614;2022-11-11T10:39:15;17.90;76.70
17495;DHT22;8864;51.970;4.614;2022-11-11T10:41:46;17.90;76.60
17495;DHT22;8864;51.970;4.614;2022-11-11T10:44:24;17.90;76.60
17495;DHT22;8864;51.970;4.614;2022-11-11T10:46:57;17.90;76.60
17495;DHT22;8864;51.970;4.614;2022-11-11T10:49:29;18.00;76.60
17495;DHT22;8864;51.970;4.614;2022-11-11T10:52:00;17.90;76.60
17495;DHT22;8864;51.970;4.614;2022-11-11T10:54:33;18.00;76.60
17495;DHT22;8864;51.970;4.614;2022-11-11T10:57:08;18.00;76.60
17495;DHT22;8864;51.970;4.614;2022-11-11T10:59:43;18.00;76.70
17495;DHT22;8864;51.970;4.614;2022-11-11T11:02:17;18.00;76.60
17495;DHT22;8864;51.970;4.614;2022-11-11T11:04:48;18.00;76.60
17495;DHT22;8864;51.970;4.614;2022-11-11T11:07:20;18.00;76.50
17495;DHT22;8864;51.970;4.614;2022-11-11T11:09:52;18.00;76.50
17495;DHT22;8864;51.970;4.614;2022-11-11T11:12:23;18.00;76.50
17495;DHT22;8864;51.970;4.614;2022-11-11T11:14:57;17.90;76.50
17495;DHT22;8864;51.970;4.614;2022-11-11T11:17:29;18.00;76.50
17495;DHT22;8864;51.970;4.614;2022-11-11T11:20:12;18.00;76.50
17495;DHT22;8864;51.970;4.614;2022-11-11T11:22:45;18.00;76.50
17495;DHT22;8864;51.970;4.614;2022-11-11T11:25:13;18.00;76.40
17495;DHT22;8864;51.970;4.614;2022-11-11T11:27:40;18.00;76.40
17495;DHT22;8864;51.970;4.614;2022-11-11T11:30:14;18.00;76.60
17495;DHT22;8864;51.970;4.614;2022-11-11T11:32:55;18.00;76.40
17495;DHT22;8864;51.970;4.614;2022-11-11T11:35:31;18.00;76.50
17495;DHT22;8864;51.970;4.614;2022-11-11T11:37:58;18.00;76.50
17495;DHT22;8864;51.970;4.614;2022-11-11T11:40:25;18.00;76.50
17495;DHT22;8864;51.970;4.614;2022-11-11T11:42:53;18.00;76.60
17495;DHT22;8864;51.970;4.614;2022-11-11T11:45:23;18.00;76.60
17495;DHT22;8864;51.970;4.614;2022-11-11T11:48:00;18.00;76.60
17495;DHT22;8864;51.970;4.614;2022-11-11T11:50:36;18.00;76.60
17495;DHT22;8864;51.970;4.614;2022-11-11T11:53:24;18.00;76.60
17495;DHT22;8864;51.970;4.614;2022-11-11T11:55:57;18.10;76.70
17495;DHT22;8864;51.970;4.614;2022-11-11T11:58:34;18.10;76.70
17495;DHT22;8864;51.970;4.614;2022-11-11T12:01:06;18.10;77.50
17495;DHT22;8864;51.970;4.614;2022-11-11T12:03:54;18.10;76.70
17495;DHT22;8864;51.970;4.614;2022-11-11T12:06:34;18.10;76.70
17495;DHT22;8864;51.970;4.614;2022-11-11T12:09:10;18.10;76.70
17495;DHT22;8864;51.970;4.614;2022-11-11T12:11:46;18.10;76.70
17495;DHT22;8864;51.970;4.614;2022-11-11T12:14:38;18.10;76.70
17495;DHT22;8864;51.970;4.614;2022-11-11T12:17:18;18.10;76.80
17495;DHT22;8864;51.970;4.614;2022-11-11T12:19:58;18.10;76.80
17495;DHT22;8864;51.970;4.614;2022-11-11T12:22:38;18.10;76.90
17495;DHT22;8864;51.970;4.614;2022-11-11T12:25:13;18.10;76.90
17495;DHT22;8864;51.970;4.614;2022-11-11T12:27:49;18.10;76.90
17495;DHT22;8864;51.970;4.614;2022-11-11T12:30:18;18.10;76.90
17495;DHT22;8864;51.970;4.614;2022-11-11T12:33:15;18.10;76.90
17495;DHT22;8864;51.970;4.614;2022-11-11T12:35:56;18.10;76.90
17495;DHT22;8864;51.970;4.614;2022-11-11T12:38:43;18.10;76.90
17495;DHT22;8864;51.970;4.614;2022-11-11T12:41:23;18.10;76.90
17495;DHT22;8864;51.970;4.614;2022-11-11T12:43:56;18.20;77.00
17495;DHT22;8864;51.970;4.614;2022-11-11T12:46:31;18.20;77.00
17495;DHT22;8864;51.970;4.614;2022-11-11T12:49:10;18.20;77.00
17495;DHT22;8864;51.970;4.614;2022-11-11T12:51:47;18.20;77.00
17495;DHT22;8864;51.970;4.614;2022-11-11T12:54:26;18.20;77.00
17495;DHT22;8864;51.970;4.614;2022-11-11T12:57:00;18.20;76.90
17495;DHT22;8864;51.970;4.614;2022-11-11T12:59:36;18.20;76.90
17495;DHT22;8864;51.970;4.614;2022-11-11T13:02:19;18.20;76.90
17495;DHT22;8864;51.970;4.614;2022-11-11T13:04:55;18.20;77.00
17495;DHT22;8864;51.970;4.614;2022-11-11T13:07:51;18.20;77.00
17495;DHT22;8864;51.970;4.614;2022-11-11T13:10:26;18.20;77.00
17495;DHT22;8864;51.970;4.614;2022-11-11T13:13:06;18.20;77.00
17495;DHT22;8864;51.970;4.614;2022-11-11T13:15:36;18.20;77.00
17495;DHT22;8864;51.970;4.614;2022-11-11T13:18:11;18.20;77.00
17495;DHT22;8864;51.970;4.614;2022-11-11T13:20:49;18.20;77.00
17495;DHT22;8864;51.970;4.614;2022-11-11T13:23:17;18.20;77.00
17495;DHT22;8864;51.970;4.614;2022-11-11T13:25:47;18.20;77.00
17495;DHT22;8864;51.970;4.614;2022-11-11T13:28:19;18.20;76.90
17495;DHT22;8864;51.970;4.614;2022-11-11T13:31:10;18.20;77.00
17495;DHT22;8864;51.970;4.614;2022-11-11T13:33:42;18.20;77.00
17495;DHT22;8864;51.970;4.614;2022-11-11T13:36:14;18.20;77.00
17495;DHT22;8864;51.970;4.614;2022-11-11T13:38:45;18.20;77.20
17495;DHT22;8864;51.970;4.614;2022-11-11T13:41:19;18.20;77.30
17495;DHT22;8864;51.970;4.614;2022-11-11T13:43:48;18.20;77.20
17495;DHT22;8864;51.970;4.614;2022-11-11T13:46:33;18.20;77.20
17495;DHT22;8864;51.970;4.614;2022-11-11T13:49:03;18.20;77.20
17495;DHT22;8864;51.970;4.614;2022-11-11T13:51:36;18.20;77.20
17495;DHT22;8864;51.970;4.614;2022-11-11T13:54:05;18.20;77.20
17495;DHT22;8864;51.970;4.614;2022-11-11T13:56:37;18.20;77.10
17495;DHT22;8864;51.970;4.614;2022-11-11T13:59:05;18.30;77.20
17495;DHT22;8864;51.970;4.614;2022-11-11T14:01:34;18.20;77.10
17495;DHT22;8864;51.970;4.614;2022-11-11T14:04:03;18.30;77.10
17495;DHT22;8864;51.970;4.614;2022-11-11T14:06:53;18.30;77.00
17495;DHT22;8864;51.970;4.614;2022-11-11T14:09:52;18.30;77.10
17495;DHT22;8864;51.970;4.614;2022-11-11T14:12:21;18.30;77.10
17495;DHT22;8864;51.970;4.614;2022-11-11T14:14:54;18.30;77.10
17495;DHT22;8864;51.970;4.614;2022-11-11T14:17:22;18.30;77.20
17495;DHT22;8864;51.970;4.614;2022-11-11T14:19:48;18.30;77.10
17495;DHT22;8864;51.970;4.614;2022-11-11T14:22:30;18.30;77.20
17495;DHT22;8864;51.970;4.614;2022-11-11T14:25:20;18.30;77.20
17495;DHT22;8864;51.970;4.614;2022-11-11T14:27:48;18.20;77.10
17495;DHT22;8864;51.970;4.614;2022-11-11T14:30:35;18.20;77.00
17495;DHT22;8864;51.970;4.614;2022-11-11T14:33:09;18.30;77.20
17495;DHT22;8864;51.970;4.614;2022-11-11T14:35:46;18.30;77.20
17495;DHT22;8864;51.970;4.614;2022-11-11T14:38:41;18.30;77.20
17495;DHT22;8864;51.970;4.614;2022-11-11T14:41:40;18.30;77.20
17495;DHT22;8864;51.970;4.614;2022-11-11T14:44:37;18.30;77.20
17495;DHT22;8864;51.970;4.614;2022-11-11T14:47:24;18.30;77.20
17495;DHT22;8864;51.970;4.614;2022-11-11T14:49:57;18.30;77.20
17495;DHT22;8864;51.970;4.614;2022-11-11T14:52:29;18.30;77.20
17495;DHT22;8864;51.970;4.614;2022-11-11T14:55:15;18.30;77.20
17495;DHT22;8864;51.970;4.614;2022-11-11T14:57:46;18.30;77.20
17495;DHT22;8864;51.970;4.614;2022-11-11T15:00:17;18.30;77.30
17495;DHT22;8864;51.970;4.614;2022-11-11T15:02:49;18.30;77.30
17495;DHT22;8864;51.970;4.614;2022-11-11T15:05:20;18.30;77.30
17495;DHT22;8864;51.970;4.614;2022-11-11T15:08:01;18.30;77.20
17495;DHT22;8864;51.970;4.614;2022-11-11T15:10:44;18.30;77.30
17495;DHT22;8864;51.970;4.614;2022-11-11T15:13:37;18.20;77.20
17495;DHT22;8864;51.970;4.614;2022-11-11T15:16:19;18.30;77.30
17495;DHT22;8864;51.970;4.614;2022-11-11T15:22:06;18.20;77.30
17495;DHT22;8864;51.970;4.614;2022-11-11T15:24:44;18.20;77.30
17495;DHT22;8864;51.970;4.614;2022-11-11T15:27:22;18.20;77.30
17495;DHT22;8864;51.970;4.614;2022-11-11T15:30:01;18.20;77.30
17495;DHT22;8864;51.970;4.614;2022-11-11T15:32:41;18.20;77.40
17495;DHT22;8864;51.970;4.614;2022-11-11T15:35:31;18.20;77.40
17495;DHT22;8864;51.970;4.614;2022-11-11T15:38:01;18.20;77.50
17495;DHT22;8864;51.970;4.614;2022-11-11T15:40:31;18.20;77.50
17495;DHT22;8864;51.970;4.614;2022-11-11T15:43:14;18.20;77.50
17495;DHT22;8864;51.970;4.614;2022-11-11T15:45:43;18.10;77.50
17495;DHT22;8864;51.970;4.614;2022-11-11T15:48:16;18.10;77.60
17495;DHT22;8864;51.970;4.614;2022-11-11T15:50:44;18.10;77.80
17495;DHT22;8864;51.970;4.614;2022-11-11T15:53:12;18.10;78.00
17495;DHT22;8864;51.970;4.614;2022-11-11T15:55:40;18.10;78.10
17495;DHT22;8864;51.970;4.614;2022-11-11T15:58:08;18.10;78.20
17495;DHT22;8864;51.970;4.614;2022-11-11T16:00:37;18.10;78.30
17495;DHT22;8864;51.970;4.614;2022-11-11T16:03:05;18.10;78.40
17495;DHT22;8864;51.970;4.614;2022-11-11T16:05:32;18.10;78.40
17495;DHT22;8864;51.970;4.614;2022-11-11T16:08:03;18.00;78.40
17495;DHT22;8864;51.970;4.614;2022-11-11T16:10:35;18.00;78.40
17495;DHT22;8864;51.970;4.614;2022-11-11T16:13:06;18.00;78.30
17495;DHT22;8864;51.970;4.614;2022-11-11T16:15:42;18.00;78.60
17495;DHT22;8864;51.970;4.614;2022-11-11T16:18:14;18.00;78.90
17495;DHT22;8864;51.970;4.614;2022-11-11T16:20:46;18.00;79.00
17495;DHT22;8864;51.970;4.614;2022-11-11T16:23:16;18.00;78.90